sensor_id;sensor_type;location;lat;lon;timestamp;P1;durP1;ratioP1;P2;durP2;ratioP2
77430;SDS011;66498;48.564;19.272;2023-04-08T00:01:00;18.15;;;12.07;;
77430;SDS011;66498;48.564;19.272;2023-04-08T00:03:25;19.50;;;13.18;;
77430;SDS011;66498;48.564;19.272;2023-04-08T00:05:51;19.42;;;12.05;;
77430;SDS011;66498;48.564;19.272;2023-04-08T00:08:16;18.95;;;12.45;;
77430;SDS011;66498;48.564;19.272;2023-04-08T00:10:42;20.52;;;12.48;;
77430;SDS011;66498;48.564;19.272;2023-04-08T00:13:07;18.92;;;12.07;;
77430;SDS011;66498;48.564;19.272;2023-04-08T00:15:33;21.75;;;13.45;;
77430;SDS011;66498;48.564;19.272;2023-04-08T00:17:59;19.27;;;12.77;;
77430;SDS011;66498;48.564;19.272;2023-04-08T00:20:24;18.08;;;12.02;;
77430;SDS011;66498;48.564;19.272;2023-04-08T00:22:50;19.83;;;12.98;;
77430;SDS011;66498;48.564;19.272;2023-04-08T00:25:15;19.77;;;13.05;;
77430;SDS011;66498;48.564;19.272;2023-04-08T00:27:41;17.02;;;11.93;;
77430;SDS011;66498;48.564;19.272;2023-04-08T00:30:06;17.20;;;11.50;;
77430;SDS011;66498;48.564;19.272;2023-04-08T00:32:32;17.30;;;11.60;;
77430;SDS011;66498;48.564;19.272;2023-04-08T00:34:57;17.95;;;12.02;;
77430;SDS011;66498;48.564;19.272;2023-04-08T00:37:23;18.70;;;12.82;;
77430;SDS011;66498;48.564;19.272;2023-04-08T00:39:49;17.65;;;11.88;;
77430;SDS011;66498;48.564;19.272;2023-04-08T00:42:15;18.00;;;11.50;;
77430;SDS011;66498;48.564;19.272;2023-04-08T00:44:41;18.35;;;12.23;;
77430;SDS011;66498;48.564;19.272;2023-04-08T00:47:07;19.77;;;12.50;;
77430;SDS011;66498;48.564;19.272;2023-04-08T00:49:36;17.35;;;11.88;;
77430;SDS011;66498;48.564;19.272;2023-04-08T00:52:02;16.70;;;11.38;;
77430;SDS011;66498;48.564;19.272;2023-04-08T00:54:27;18.02;;;11.73;;
77430;SDS011;66498;48.564;19.272;2023-04-08T00:56:54;17.02;;;11.30;;
77430;SDS011;66498;48.564;19.272;2023-04-08T00:59:20;17.80;;;11.43;;
77430;SDS011;66498;48.564;19.272;2023-04-08T01:04:43;17.95;;;11.48;;
77430;SDS011;66498;48.564;19.272;2023-04-08T01:07:17;16.58;;;11.48;;
77430;SDS011;66498;48.564;19.272;2023-04-08T01:09:49;17.60;;;11.27;;
77430;SDS011;66498;48.564;19.272;2023-04-08T01:12:24;16.65;;;10.88;;
77430;SDS011;66498;48.564;19.272;2023-04-08T01:15:04;14.48;;;9.98;;
77430;SDS011;66498;48.564;19.272;2023-04-08T01:17:31;13.60;;;9.80;;
77430;SDS011;66498;48.564;19.272;2023-04-08T01:19:59;14.65;;;9.70;;
77430;SDS011;66498;48.564;19.272;2023-04-08T01:22:28;15.05;;;10.77;;
77430;SDS011;66498;48.564;19.272;2023-04-08T01:25:17;14.00;;;10.23;;
77430;SDS011;66498;48.564;19.272;2023-04-08T01:27:45;14.32;;;10.00;;
77430;SDS011;66498;48.564;19.272;2023-04-08T01:30:13;15.32;;;10.57;;
77430;SDS011;66498;48.564;19.272;2023-04-08T01:32:42;12.95;;;9.40;;
77430;SDS011;66498;48.564;19.272;2023-04-08T01:35:09;13.63;;;9.77;;
77430;SDS011;66498;48.564;19.272;2023-04-08T01:37:36;12.63;;;9.32;;
77430;SDS011;66498;48.564;19.272;2023-04-08T01:40:03;16.52;;;10.80;;
77430;SDS011;66498;48.564;19.272;2023-04-08T01:42:31;18.23;;;12.45;;
77430;SDS011;66498;48.564;19.272;2023-04-08T01:44:59;20.17;;;12.98;;
77430;SDS011;66498;48.564;19.272;2023-04-08T01:47:27;19.33;;;12.60;;
77430;SDS011;66498;48.564;19.272;2023-04-08T01:49:53;21.23;;;13.60;;
77430;SDS011;66498;48.564;19.272;2023-04-08T01:52:20;26.67;;;15.02;;
77430;SDS011;66498;48.564;19.272;2023-04-08T01:54:47;24.67;;;15.02;;
77430;SDS011;66498;48.564;19.272;2023-04-08T01:57:14;23.48;;;14.32;;
77430;SDS011;66498;48.564;19.272;2023-04-08T01:59:47;22.30;;;13.60;;
77430;SDS011;66498;48.564;19.272;2023-04-08T02:02:14;21.63;;;13.23;;
77430;SDS011;66498;48.564;19.272;2023-04-08T02:04:42;21.73;;;13.95;;
77430;SDS011;66498;48.564;19.272;2023-04-08T02:07:07;21.02;;;12.60;;
77430;SDS011;66498;48.564;19.272;2023-04-08T02:09:34;22.13;;;13.32;;
77430;SDS011;66498;48.564;19.272;2023-04-08T02:11:59;21.83;;;13.48;;
77430;SDS011;66498;48.564;19.272;2023-04-08T02:14:25;20.85;;;13.00;;
77430;SDS011;66498;48.564;19.272;2023-04-08T02:16:53;18.98;;;12.32;;
77430;SDS011;66498;48.564;19.272;2023-04-08T02:22:36;17.13;;;12.05;;
77430;SDS011;66498;48.564;19.272;2023-04-08T02:25:07;19.77;;;12.55;;
77430;SDS011;66498;48.564;19.272;2023-04-08T02:27:37;18.33;;;12.25;;
77430;SDS011;66498;48.564;19.272;2023-04-08T02:30:04;19.65;;;12.43;;
77430;SDS011;66498;48.564;19.272;2023-04-08T02:32:32;19.95;;;12.82;;
77430;SDS011;66498;48.564;19.272;2023-04-08T02:35:02;18.13;;;12.02;;
77430;SDS011;66498;48.564;19.272;2023-04-08T02:37:32;19.33;;;12.25;;
77430;SDS011;66498;48.564;19.272;2023-04-08T02:39:58;19.10;;;12.38;;
77430;SDS011;66498;48.564;19.272;2023-04-08T02:42:23;18.92;;;12.32;;
77430;SDS011;66498;48.564;19.272;2023-04-08T02:44:49;20.05;;;12.63;;
77430;SDS011;66498;48.564;19.272;2023-04-08T02:47:15;19.98;;;13.10;;
77430;SDS011;66498;48.564;19.272;2023-04-08T02:49:41;21.33;;;12.75;;
77430;SDS011;66498;48.564;19.272;2023-04-08T02:52:06;21.58;;;13.00;;
77430;SDS011;66498;48.564;19.272;2023-04-08T02:54:32;19.83;;;12.60;;
77430;SDS011;66498;48.564;19.272;2023-04-08T02:56:57;20.95;;;13.35;;
77430;SDS011;66498;48.564;19.272;2023-04-08T02:59:23;22.05;;;13.45;;
77430;SDS011;66498;48.564;19.272;2023-04-08T03:01:48;21.52;;;13.35;;
77430;SDS011;66498;48.564;19.272;2023-04-08T03:04:15;24.05;;;14.90;;
77430;SDS011;66498;48.564;19.272;2023-04-08T03:06:40;22.23;;;12.63;;
77430;SDS011;66498;48.564;19.272;2023-04-08T03:09:06;23.13;;;14.02;;
77430;SDS011;66498;48.564;19.272;2023-04-08T03:11:31;23.33;;;14.00;;
77430;SDS011;66498;48.564;19.272;2023-04-08T03:13:57;23.80;;;15.45;;
77430;SDS011;66498;48.564;19.272;2023-04-08T03:16:22;26.40;;;15.18;;
77430;SDS011;66498;48.564;19.272;2023-04-08T03:18:48;25.27;;;15.00;;
77430;SDS011;66498;48.564;19.272;2023-04-08T03:21:17;28.95;;;16.45;;
77430;SDS011;66498;48.564;19.272;2023-04-08T03:23:43;29.75;;;16.67;;
77430;SDS011;66498;48.564;19.272;2023-04-08T03:26:09;30.25;;;16.45;;
77430;SDS011;66498;48.564;19.272;2023-04-08T03:28:35;31.85;;;17.75;;
77430;SDS011;66498;48.564;19.272;2023-04-08T03:31:04;27.33;;;15.73;;
77430;SDS011;66498;48.564;19.272;2023-04-08T03:33:30;30.23;;;17.23;;
77430;SDS011;66498;48.564;19.272;2023-04-08T03:35:56;32.30;;;17.55;;
77430;SDS011;66498;48.564;19.272;2023-04-08T03:38:21;31.15;;;17.05;;
77430;SDS011;66498;48.564;19.272;2023-04-08T03:40:47;31.10;;;16.80;;
77430;SDS011;66498;48.564;19.272;2023-04-08T03:43:13;30.98;;;17.10;;
77430;SDS011;66498;48.564;19.272;2023-04-08T03:45:38;31.10;;;17.13;;
77430;SDS011;66498;48.564;19.272;2023-04-08T03:48:04;30.23;;;16.77;;
77430;SDS011;66498;48.564;19.272;2023-04-08T03:50:30;30.60;;;17.48;;
77430;SDS011;66498;48.564;19.272;2023-04-08T03:52:55;30.58;;;17.35;;
77430;SDS011;66498;48.564;19.272;2023-04-08T03:55:21;31.27;;;17.23;;
77430;SDS011;66498;48.564;19.272;2023-04-08T03:57:46;32.58;;;17.63;;
77430;SDS011;66498;48.564;19.272;2023-04-08T04:00:12;32.20;;;17.73;;
77430;SDS011;66498;48.564;19.272;2023-04-08T04:02:38;27.88;;;15.77;;
77430;SDS011;66498;48.564;19.272;2023-04-08T04:05:04;28.95;;;16.70;;
77430;SDS011;66498;48.564;19.272;2023-04-08T04:07:29;26.92;;;15.43;;
77430;SDS011;66498;48.564;19.272;2023-04-08T04:09:55;28.83;;;15.95;;
77430;SDS011;66498;48.564;19.272;2023-04-08T04:12:21;29.08;;;16.58;;
77430;SDS011;66498;48.564;19.272;2023-04-08T04:14:47;28.23;;;16.60;;
77430;SDS011;66498;48.564;19.272;2023-04-08T04:17:13;29.70;;;17.20;;
77430;SDS011;66498;48.564;19.272;2023-04-08T04:19:38;28.35;;;16.05;;
77430;SDS011;66498;48.564;19.272;2023-04-08T04:22:04;26.10;;;15.65;;
77430;SDS011;66498;48.564;19.272;2023-04-08T04:24:30;27.90;;;16.02;;
77430;SDS011;66498;48.564;19.272;2023-04-08T04:26:55;26.58;;;15.07;;
77430;SDS011;66498;48.564;19.272;2023-04-08T04:29:21;26.60;;;15.43;;
77430;SDS011;66498;48.564;19.272;2023-04-08T04:31:47;26.10;;;15.40;;
77430;SDS011;66498;48.564;19.272;2023-04-08T04:34:12;26.63;;;15.48;;
77430;SDS011;66498;48.564;19.272;2023-04-08T04:36:39;27.80;;;15.95;;
77430;SDS011;66498;48.564;19.272;2023-04-08T04:39:05;26.15;;;16.05;;
77430;SDS011;66498;48.564;19.272;2023-04-08T04:41:31;26.60;;;14.98;;
77430;SDS011;66498;48.564;19.272;2023-04-08T04:43:56;25.42;;;15.40;;
77430;SDS011;66498;48.564;19.272;2023-04-08T04:46:22;23.98;;;14.82;;
77430;SDS011;66498;48.564;19.272;2023-04-08T04:48:47;25.95;;;14.77;;
77430;SDS011;66498;48.564;19.272;2023-04-08T04:51:13;23.85;;;14.48;;
77430;SDS011;66498;48.564;19.272;2023-04-08T04:53:39;23.80;;;14.10;;
77430;SDS011;66498;48.564;19.272;2023-04-08T04:56:05;22.52;;;14.32;;
77430;SDS011;66498;48.564;19.272;2023-04-08T04:58:32;24.25;;;14.45;;
77430;SDS011;66498;48.564;19.272;2023-04-08T05:00:57;23.58;;;14.23;;
77430;SDS011;66498;48.564;19.272;2023-04-08T05:03:23;22.63;;;13.98;;
77430;SDS011;66498;48.564;19.272;2023-04-08T05:05:52;23.83;;;15.02;;
77430;SDS011;66498;48.564;19.272;2023-04-08T05:08:18;25.10;;;15.15;;
77430;SDS011;66498;48.564;19.272;2023-04-08T05:10:44;22.92;;;14.70;;
77430;SDS011;66498;48.564;19.272;2023-04-08T05:13:09;24.10;;;14.65;;
77430;SDS011;66498;48.564;19.272;2023-04-08T05:15:35;22.33;;;14.35;;
77430;SDS011;66498;48.564;19.272;2023-04-08T05:18:01;24.20;;;14.63;;
77430;SDS011;66498;48.564;19.272;2023-04-08T05:20:26;27.35;;;15.80;;
77430;SDS011;66498;48.564;19.272;2023-04-08T05:22:52;24.45;;;15.70;;
77430;SDS011;66498;48.564;19.272;2023-04-08T05:25:17;30.88;;;18.30;;
77430;SDS011;66498;48.564;19.272;2023-04-08T05:27:43;26.45;;;17.08;;
77430;SDS011;66498;48.564;19.272;2023-04-08T05:30:09;23.58;;;15.05;;
77430;SDS011;66498;48.564;19.272;2023-04-08T05:32:35;24.17;;;15.40;;
77430;SDS011;66498;48.564;19.272;2023-04-08T05:35:01;22.27;;;14.55;;
77430;SDS011;66498;48.564;19.272;2023-04-08T05:37:27;23.42;;;15.30;;
77430;SDS011;66498;48.564;19.272;2023-04-08T05:39:53;26.30;;;15.90;;
77430;SDS011;66498;48.564;19.272;2023-04-08T05:42:18;23.52;;;14.52;;
77430;SDS011;66498;48.564;19.272;2023-04-08T05:44:44;25.05;;;14.98;;
77430;SDS011;66498;48.564;19.272;2023-04-08T05:47:10;22.67;;;14.70;;
77430;SDS011;66498;48.564;19.272;2023-04-08T05:49:35;22.95;;;14.27;;
77430;SDS011;66498;48.564;19.272;2023-04-08T05:52:01;22.88;;;14.73;;
77430;SDS011;66498;48.564;19.272;2023-04-08T05:54:27;22.88;;;14.50;;
77430;SDS011;66498;48.564;19.272;2023-04-08T05:56:53;23.25;;;14.52;;
77430;SDS011;66498;48.564;19.272;2023-04-08T05:59:19;29.42;;;17.30;;
77430;SDS011;66498;48.564;19.272;2023-04-08T06:01:44;28.25;;;17.60;;
77430;SDS011;66498;48.564;19.272;2023-04-08T06:04:09;28.48;;;18.02;;
77430;SDS011;66498;48.564;19.272;2023-04-08T06:06:38;25.65;;;15.48;;
77430;SDS011;66498;48.564;19.272;2023-04-08T06:09:04;23.67;;;14.82;;
77430;SDS011;66498;48.564;19.272;2023-04-08T06:11:30;23.13;;;14.43;;
77430;SDS011;66498;48.564;19.272;2023-04-08T06:13:56;21.80;;;14.02;;
77430;SDS011;66498;48.564;19.272;2023-04-08T06:16:21;22.35;;;13.73;;
77430;SDS011;66498;48.564;19.272;2023-04-08T06:18:47;23.85;;;15.25;;
77430;SDS011;66498;48.564;19.272;2023-04-08T06:21:13;23.02;;;15.52;;
77430;SDS011;66498;48.564;19.272;2023-04-08T06:23:39;20.77;;;14.40;;
77430;SDS011;66498;48.564;19.272;2023-04-08T06:26:05;21.88;;;14.07;;
77430;SDS011;66498;48.564;19.272;2023-04-08T06:28:31;24.02;;;15.23;;
77430;SDS011;66498;48.564;19.272;2023-04-08T06:30:57;24.67;;;15.52;;
77430;SDS011;66498;48.564;19.272;2023-04-08T06:33:23;22.98;;;14.50;;
77430;SDS011;66498;48.564;19.272;2023-04-08T06:35:49;24.15;;;15.48;;
77430;SDS011;66498;48.564;19.272;2023-04-08T06:38:15;25.50;;;15.40;;
77430;SDS011;66498;48.564;19.272;2023-04-08T06:40:40;24.65;;;14.70;;
77430;SDS011;66498;48.564;19.272;2023-04-08T06:43:06;24.45;;;15.20;;
77430;SDS011;66498;48.564;19.272;2023-04-08T06:45:32;26.13;;;15.88;;
77430;SDS011;66498;48.564;19.272;2023-04-08T06:47:58;23.63;;;14.63;;
77430;SDS011;66498;48.564;19.272;2023-04-08T06:50:24;26.63;;;14.45;;
77430;SDS011;66498;48.564;19.272;2023-04-08T06:52:52;25.85;;;15.18;;
77430;SDS011;66498;48.564;19.272;2023-04-08T06:55:19;23.70;;;14.10;;
77430;SDS011;66498;48.564;19.272;2023-04-08T06:57:44;22.40;;;14.32;;
77430;SDS011;66498;48.564;19.272;2023-04-08T07:00:11;22.40;;;13.98;;
77430;SDS011;66498;48.564;19.272;2023-04-08T07:02:37;22.45;;;13.63;;
77430;SDS011;66498;48.564;19.272;2023-04-08T07:05:06;22.20;;;12.80;;
77430;SDS011;66498;48.564;19.272;2023-04-08T07:07:33;24.75;;;14.18;;
77430;SDS011;66498;48.564;19.272;2023-04-08T07:10:00;21.38;;;12.98;;
77430;SDS011;66498;48.564;19.272;2023-04-08T07:12:25;21.70;;;13.68;;
77430;SDS011;66498;48.564;19.272;2023-04-08T07:14:51;21.38;;;13.73;;
77430;SDS011;66498;48.564;19.272;2023-04-08T07:17:17;22.05;;;13.48;;
77430;SDS011;66498;48.564;19.272;2023-04-08T07:19:43;21.13;;;12.90;;
77430;SDS011;66498;48.564;19.272;2023-04-08T07:22:08;23.40;;;14.25;;
77430;SDS011;66498;48.564;19.272;2023-04-08T07:24:34;21.60;;;13.98;;
77430;SDS011;66498;48.564;19.272;2023-04-08T07:27:00;19.92;;;12.52;;
77430;SDS011;66498;48.564;19.272;2023-04-08T07:29:26;20.30;;;12.55;;
77430;SDS011;66498;48.564;19.272;2023-04-08T07:31:52;20.73;;;12.95;;
77430;SDS011;66498;48.564;19.272;2023-04-08T07:34:18;21.90;;;13.15;;
77430;SDS011;66498;48.564;19.272;2023-04-08T07:36:44;22.27;;;13.52;;
77430;SDS011;66498;48.564;19.272;2023-04-08T07:39:09;20.17;;;12.25;;
77430;SDS011;66498;48.564;19.272;2023-04-08T07:41:35;19.05;;;12.05;;
77430;SDS011;66498;48.564;19.272;2023-04-08T07:44:01;21.40;;;11.95;;
77430;SDS011;66498;48.564;19.272;2023-04-08T07:46:27;19.50;;;12.10;;
77430;SDS011;66498;48.564;19.272;2023-04-08T07:48:52;20.92;;;12.57;;
77430;SDS011;66498;48.564;19.272;2023-04-08T07:51:18;18.13;;;10.85;;
77430;SDS011;66498;48.564;19.272;2023-04-08T07:53:44;18.25;;;10.85;;
77430;SDS011;66498;48.564;19.272;2023-04-08T07:56:10;20.10;;;11.65;;
77430;SDS011;66498;48.564;19.272;2023-04-08T07:58:37;20.15;;;11.88;;
77430;SDS011;66498;48.564;19.272;2023-04-08T08:01:03;18.13;;;11.55;;
77430;SDS011;66498;48.564;19.272;2023-04-08T08:03:28;18.75;;;12.00;;
77430;SDS011;66498;48.564;19.272;2023-04-08T08:05:54;27.00;;;17.58;;
77430;SDS011;66498;48.564;19.272;2023-04-08T08:08:19;18.40;;;11.70;;
77430;SDS011;66498;48.564;19.272;2023-04-08T08:10:45;19.55;;;11.80;;
77430;SDS011;66498;48.564;19.272;2023-04-08T08:13:11;18.02;;;11.65;;
77430;SDS011;66498;48.564;19.272;2023-04-08T08:15:40;17.88;;;11.50;;
77430;SDS011;66498;48.564;19.272;2023-04-08T08:18:06;19.23;;;11.77;;
77430;SDS011;66498;48.564;19.272;2023-04-08T08:20:32;18.27;;;11.55;;
77430;SDS011;66498;48.564;19.272;2023-04-08T08:23:00;27.65;;;13.88;;
77430;SDS011;66498;48.564;19.272;2023-04-08T08:25:26;18.67;;;11.35;;
77430;SDS011;66498;48.564;19.272;2023-04-08T08:27:51;15.75;;;10.48;;
77430;SDS011;66498;48.564;19.272;2023-04-08T08:30:17;17.17;;;11.43;;
77430;SDS011;66498;48.564;19.272;2023-04-08T08:32:45;15.82;;;10.45;;
77430;SDS011;66498;48.564;19.272;2023-04-08T08:35:11;17.05;;;11.20;;
77430;SDS011;66498;48.564;19.272;2023-04-08T08:37:38;16.40;;;10.73;;
77430;SDS011;66498;48.564;19.272;2023-04-08T08:40:04;17.60;;;11.40;;
77430;SDS011;66498;48.564;19.272;2023-04-08T08:42:31;15.35;;;10.43;;
77430;SDS011;66498;48.564;19.272;2023-04-08T08:44:57;14.35;;;10.02;;
77430;SDS011;66498;48.564;19.272;2023-04-08T08:47:27;15.80;;;11.05;;
77430;SDS011;66498;48.564;19.272;2023-04-08T08:49:53;15.32;;;10.50;;
77430;SDS011;66498;48.564;19.272;2023-04-08T08:52:19;16.80;;;11.88;;
77430;SDS011;66498;48.564;19.272;2023-04-08T08:54:44;15.15;;;10.63;;
77430;SDS011;66498;48.564;19.272;2023-04-08T08:57:17;13.77;;;9.88;;
77430;SDS011;66498;48.564;19.272;2023-04-08T08:59:44;12.18;;;8.45;;
77430;SDS011;66498;48.564;19.272;2023-04-08T09:02:23;13.35;;;9.45;;
77430;SDS011;66498;48.564;19.272;2023-04-08T09:05:01;15.10;;;10.38;;
77430;SDS011;66498;48.564;19.272;2023-04-08T09:07:29;13.32;;;9.68;;
77430;SDS011;66498;48.564;19.272;2023-04-08T09:09:59;14.50;;;10.40;;
77430;SDS011;66498;48.564;19.272;2023-04-08T09:12:25;15.52;;;11.45;;
77430;SDS011;66498;48.564;19.272;2023-04-08T09:15:07;14.65;;;11.10;;
77430;SDS011;66498;48.564;19.272;2023-04-08T09:17:34;12.77;;;9.43;;
77430;SDS011;66498;48.564;19.272;2023-04-08T09:20:09;14.55;;;10.13;;
77430;SDS011;66498;48.564;19.272;2023-04-08T09:25:32;14.90;;;10.75;;
77430;SDS011;66498;48.564;19.272;2023-04-08T09:27:58;13.00;;;9.23;;
77430;SDS011;66498;48.564;19.272;2023-04-08T09:30:25;13.90;;;9.80;;
77430;SDS011;66498;48.564;19.272;2023-04-08T09:32:57;13.32;;;10.00;;
77430;SDS011;66498;48.564;19.272;2023-04-08T09:35:23;27.05;;;23.00;;
77430;SDS011;66498;48.564;19.272;2023-04-08T09:37:50;15.15;;;12.82;;
77430;SDS011;66498;48.564;19.272;2023-04-08T09:40:16;18.55;;;14.25;;
77430;SDS011;66498;48.564;19.272;2023-04-08T09:42:45;13.77;;;9.52;;
77430;SDS011;66498;48.564;19.272;2023-04-08T09:45:15;12.85;;;9.63;;
77430;SDS011;66498;48.564;19.272;2023-04-08T09:47:43;11.10;;;8.40;;
77430;SDS011;66498;48.564;19.272;2023-04-08T09:50:15;10.63;;;8.07;;
77430;SDS011;66498;48.564;19.272;2023-04-08T09:52:43;12.75;;;10.40;;
77430;SDS011;66498;48.564;19.272;2023-04-08T09:55:15;10.25;;;7.90;;
77430;SDS011;66498;48.564;19.272;2023-04-08T09:57:54;11.38;;;8.32;;
77430;SDS011;66498;48.564;19.272;2023-04-08T10:00:33;20.00;;;15.48;;
77430;SDS011;66498;48.564;19.272;2023-04-08T10:03:21;9.10;;;6.85;;
77430;SDS011;66498;48.564;19.272;2023-04-08T10:06:01;11.25;;;7.60;;
77430;SDS011;66498;48.564;19.272;2023-04-08T10:08:28;9.50;;;7.47;;
77430;SDS011;66498;48.564;19.272;2023-04-08T10:10:55;17.48;;;10.82;;
77430;SDS011;66498;48.564;19.272;2023-04-08T10:13:22;9.23;;;7.20;;
77430;SDS011;66498;48.564;19.272;2023-04-08T10:15:48;16.13;;;9.63;;
77430;SDS011;66498;48.564;19.272;2023-04-08T10:20:43;9.15;;;6.80;;
77430;SDS011;66498;48.564;19.272;2023-04-08T10:23:10;8.93;;;6.63;;
77430;SDS011;66498;48.564;19.272;2023-04-08T10:25:45;10.52;;;7.30;;
77430;SDS011;66498;48.564;19.272;2023-04-08T10:33:10;11.05;;;8.60;;
77430;SDS011;66498;48.564;19.272;2023-04-08T10:35:38;6.72;;;4.97;;
77430;SDS011;66498;48.564;19.272;2023-04-08T10:38:07;8.60;;;6.45;;
77430;SDS011;66498;48.564;19.272;2023-04-08T10:40:36;8.35;;;6.30;;
77430;SDS011;66498;48.564;19.272;2023-04-08T10:43:03;8.73;;;6.55;;
77430;SDS011;66498;48.564;19.272;2023-04-08T10:45:32;8.50;;;6.25;;
77430;SDS011;66498;48.564;19.272;2023-04-08T10:50:36;7.70;;;6.05;;
77430;SDS011;66498;48.564;19.272;2023-04-08T10:53:01;8.55;;;6.40;;
77430;SDS011;66498;48.564;19.272;2023-04-08T10:58:17;7.25;;;6.05;;
77430;SDS011;66498;48.564;19.272;2023-04-08T11:00:43;8.00;;;5.32;;
77430;SDS011;66498;48.564;19.272;2023-04-08T11:03:09;7.40;;;5.68;;
77430;SDS011;66498;48.564;19.272;2023-04-08T11:05:36;8.45;;;6.38;;
77430;SDS011;66498;48.564;19.272;2023-04-08T11:08:03;10.07;;;7.35;;
77430;SDS011;66498;48.564;19.272;2023-04-08T11:10:30;7.80;;;5.68;;
77430;SDS011;66498;48.564;19.272;2023-04-08T11:13:00;7.00;;;5.50;;
77430;SDS011;66498;48.564;19.272;2023-04-08T11:15:28;7.05;;;5.80;;
77430;SDS011;66498;48.564;19.272;2023-04-08T11:17:54;7.03;;;5.70;;
77430;SDS011;66498;48.564;19.272;2023-04-08T11:20:20;7.50;;;5.57;;
77430;SDS011;66498;48.564;19.272;2023-04-08T11:22:47;7.13;;;5.75;;
77430;SDS011;66498;48.564;19.272;2023-04-08T11:25:13;7.20;;;5.63;;
77430;SDS011;66498;48.564;19.272;2023-04-08T11:27:38;8.35;;;6.10;;
77430;SDS011;66498;48.564;19.272;2023-04-08T11:30:05;7.30;;;6.03;;
77430;SDS011;66498;48.564;19.272;2023-04-08T11:32:32;7.95;;;5.97;;
77430;SDS011;66498;48.564;19.272;2023-04-08T11:34:58;8.07;;;6.10;;
77430;SDS011;66498;48.564;19.272;2023-04-08T11:37:25;7.90;;;6.20;;
77430;SDS011;66498;48.564;19.272;2023-04-08T11:39:51;6.90;;;5.38;;
77430;SDS011;66498;48.564;19.272;2023-04-08T11:42:27;7.90;;;5.68;;
77430;SDS011;66498;48.564;19.272;2023-04-08T11:44:53;8.23;;;5.88;;
77430;SDS011;66498;48.564;19.272;2023-04-08T11:47:19;7.78;;;5.90;;
77430;SDS011;66498;48.564;19.272;2023-04-08T11:49:45;8.18;;;6.32;;
77430;SDS011;66498;48.564;19.272;2023-04-08T11:52:11;7.78;;;5.28;;
77430;SDS011;66498;48.564;19.272;2023-04-08T11:54:41;9.20;;;6.60;;
77430;SDS011;66498;48.564;19.272;2023-04-08T11:57:08;7.63;;;5.93;;
77430;SDS011;66498;48.564;19.272;2023-04-08T11:59:36;7.40;;;5.85;;
77430;SDS011;66498;48.564;19.272;2023-04-08T12:02:02;8.00;;;6.40;;
77430;SDS011;66498;48.564;19.272;2023-04-08T12:04:28;8.35;;;6.35;;
77430;SDS011;66498;48.564;19.272;2023-04-08T12:06:55;9.43;;;6.80;;
77430;SDS011;66498;48.564;19.272;2023-04-08T12:09:23;11.75;;;6.75;;
77430;SDS011;66498;48.564;19.272;2023-04-08T12:11:48;8.75;;;6.70;;
77430;SDS011;66498;48.564;19.272;2023-04-08T12:14:14;7.95;;;5.75;;
77430;SDS011;66498;48.564;19.272;2023-04-08T12:16:40;9.48;;;7.35;;
77430;SDS011;66498;48.564;19.272;2023-04-08T12:19:05;8.27;;;5.88;;
77430;SDS011;66498;48.564;19.272;2023-04-08T12:21:31;7.45;;;5.82;;
77430;SDS011;66498;48.564;19.272;2023-04-08T12:23:58;7.18;;;5.80;;
77430;SDS011;66498;48.564;19.272;2023-04-08T12:26:23;7.18;;;5.85;;
77430;SDS011;66498;48.564;19.272;2023-04-08T12:28:49;6.68;;;5.63;;
77430;SDS011;66498;48.564;19.272;2023-04-08T12:31:15;6.95;;;4.88;;
77430;SDS011;66498;48.564;19.272;2023-04-08T12:33:40;7.20;;;5.30;;
77430;SDS011;66498;48.564;19.272;2023-04-08T12:36:06;7.38;;;5.55;;
77430;SDS011;66498;48.564;19.272;2023-04-08T12:38:31;7.95;;;5.93;;
77430;SDS011;66498;48.564;19.272;2023-04-08T12:40:57;8.25;;;5.90;;
77430;SDS011;66498;48.564;19.272;2023-04-08T12:43:25;8.23;;;6.45;;
77430;SDS011;66498;48.564;19.272;2023-04-08T12:45:51;7.25;;;5.63;;
77430;SDS011;66498;48.564;19.272;2023-04-08T12:48:16;7.45;;;5.80;;
77430;SDS011;66498;48.564;19.272;2023-04-08T12:50:42;8.65;;;6.35;;
77430;SDS011;66498;48.564;19.272;2023-04-08T12:53:08;7.07;;;5.80;;
77430;SDS011;66498;48.564;19.272;2023-04-08T12:55:33;7.05;;;5.45;;
77430;SDS011;66498;48.564;19.272;2023-04-08T12:57:59;7.10;;;5.90;;
77430;SDS011;66498;48.564;19.272;2023-04-08T13:00:25;7.10;;;5.88;;
77430;SDS011;66498;48.564;19.272;2023-04-08T13:02:50;7.40;;;6.10;;
77430;SDS011;66498;48.564;19.272;2023-04-08T13:05:16;8.90;;;6.63;;
77430;SDS011;66498;48.564;19.272;2023-04-08T13:07:42;8.82;;;6.10;;
77430;SDS011;66498;48.564;19.272;2023-04-08T13:10:07;7.88;;;5.53;;
77430;SDS011;66498;48.564;19.272;2023-04-08T13:12:33;8.13;;;6.10;;
77430;SDS011;66498;48.564;19.272;2023-04-08T13:14:59;8.88;;;6.05;;
77430;SDS011;66498;48.564;19.272;2023-04-08T13:17:25;7.03;;;5.53;;
77430;SDS011;66498;48.564;19.272;2023-04-08T13:19:52;8.00;;;6.03;;
77430;SDS011;66498;48.564;19.272;2023-04-08T13:22:17;7.60;;;6.00;;
77430;SDS011;66498;48.564;19.272;2023-04-08T13:24:43;6.93;;;5.45;;
77430;SDS011;66498;48.564;19.272;2023-04-08T13:27:09;7.20;;;5.88;;
77430;SDS011;66498;48.564;19.272;2023-04-08T13:29:34;8.77;;;6.85;;
77430;SDS011;66498;48.564;19.272;2023-04-08T13:32:00;8.55;;;6.35;;
77430;SDS011;66498;48.564;19.272;2023-04-08T13:34:26;7.38;;;5.60;;
77430;SDS011;66498;48.564;19.272;2023-04-08T13:36:51;7.95;;;5.82;;
77430;SDS011;66498;48.564;19.272;2023-04-08T13:39:17;9.10;;;6.30;;
77430;SDS011;66498;48.564;19.272;2023-04-08T13:41:43;8.20;;;5.97;;
77430;SDS011;66498;48.564;19.272;2023-04-08T13:44:09;8.27;;;6.28;;
77430;SDS011;66498;48.564;19.272;2023-04-08T13:46:35;7.68;;;6.13;;
77430;SDS011;66498;48.564;19.272;2023-04-08T13:49:01;7.53;;;5.70;;
77430;SDS011;66498;48.564;19.272;2023-04-08T13:51:27;6.80;;;5.55;;
77430;SDS011;66498;48.564;19.272;2023-04-08T13:53:53;8.18;;;5.60;;
77430;SDS011;66498;48.564;19.272;2023-04-08T13:56:19;7.78;;;5.70;;
77430;SDS011;66498;48.564;19.272;2023-04-08T13:58:45;7.10;;;5.47;;
77430;SDS011;66498;48.564;19.272;2023-04-08T14:01:11;8.77;;;6.05;;
77430;SDS011;66498;48.564;19.272;2023-04-08T14:03:37;8.00;;;6.20;;
77430;SDS011;66498;48.564;19.272;2023-04-08T14:06:03;7.13;;;5.55;;
77430;SDS011;66498;48.564;19.272;2023-04-08T14:08:28;7.25;;;5.63;;
77430;SDS011;66498;48.564;19.272;2023-04-08T14:10:55;31.35;;;24.33;;
77430;SDS011;66498;48.564;19.272;2023-04-08T14:13:21;19.60;;;16.05;;
77430;SDS011;66498;48.564;19.272;2023-04-08T14:15:47;8.30;;;6.47;;
77430;SDS011;66498;48.564;19.272;2023-04-08T14:18:14;14.05;;;10.18;;
77430;SDS011;66498;48.564;19.272;2023-04-08T14:20:43;6.78;;;5.43;;
77430;SDS011;66498;48.564;19.272;2023-04-08T14:23:08;6.88;;;5.45;;
77430;SDS011;66498;48.564;19.272;2023-04-08T14:25:35;8.60;;;5.57;;
77430;SDS011;66498;48.564;19.272;2023-04-08T14:28:00;8.40;;;5.53;;
77430;SDS011;66498;48.564;19.272;2023-04-08T14:30:26;8.00;;;5.38;;
77430;SDS011;66498;48.564;19.272;2023-04-08T14:32:53;14.95;;;5.53;;
77430;SDS011;66498;48.564;19.272;2023-04-08T14:35:18;35.50;;;21.58;;